createdAt,value
2023-05-04T00:00:15.280Z,2128.00
2023-05-04T00:01:15.262Z,2084.00
2023-05-04T00:02:15.341Z,2046.00
2023-05-04T00:03:15.408Z,2060.00
2023-05-04T00:04:15.446Z,2138.00
2023-05-04T00:05:15.361Z,2200.00
2023-05-04T00:06:15.378Z,2178.00
2023-05-04T00:07:15.440Z,2165.00
2023-05-04T00:08:15.412Z,2131.00
2023-05-04T00:09:15.434Z,2116.00
2023-05-04T00:10:15.460Z,2082.00
2023-05-04T00:11:15.501Z,2082.00
2023-05-04T00:12:15.541Z,2073.00
2023-05-04T00:13:15.710Z,2087.00
2023-05-04T00:14:15.586Z,2122.00
2023-05-04T00:15:15.646Z,2185.00
2023-05-04T00:16:15.669Z,2199.00
2023-05-04T00:17:15.637Z,2199.00
2023-05-04T00:18:15.671Z,2166.00
2023-05-04T00:19:15.692Z,2116.00
2023-05-04T00:20:15.696Z,2066.00
2023-05-04T00:21:15.708Z,2047.00
2023-05-04T00:22:15.719Z,2089.00
2023-05-04T00:23:15.745Z,2045.00
2023-05-04T00:24:15.833Z,2048.00
2023-05-04T00:25:15.817Z,2038.00
2023-05-04T00:26:15.854Z,2032.00
2023-05-04T00:27:15.871Z,1981.00
2023-05-04T00:28:15.867Z,1966.00
2023-05-04T00:29:15.918Z,1972.00
2023-05-04T00:30:15.934Z,1968.00
2023-05-04T00:31:15.964Z,2012.00
2023-05-04T00:32:15.998Z,2055.00
2023-05-04T00:33:16.038Z,2048.00
2023-05-04T00:34:16.085Z,2063.00
2023-05-04T00:35:16.107Z,2054.00
2023-05-04T00:36:16.167Z,2084.00
2023-05-04T00:37:16.192Z,2102.00
2023-05-04T00:38:16.212Z,2059.00
2023-05-04T00:39:16.257Z,2052.00
2023-05-04T00:40:16.312Z,2082.00
2023-05-04T00:41:16.299Z,2086.00
2023-05-04T00:42:16.327Z,2032.00
2023-05-04T00:43:16.359Z,2034.00
2023-05-04T00:44:16.381Z,2062.00
2023-05-04T00:45:16.406Z,2048.00
2023-05-04T00:46:16.440Z,2022.00
2023-05-04T00:47:16.637Z,2035.00
2023-05-04T00:48:16.490Z,2043.00
2023-05-04T00:49:16.448Z,2041.00
2023-05-04T00:50:16.467Z,2051.00
2023-05-04T00:51:16.515Z,2051.00
2023-05-04T00:52:16.551Z,2069.00
2023-05-04T00:53:16.586Z,2060.00
2023-05-04T00:54:16.580Z,2084.00
2023-05-04T00:55:16.614Z,2105.00
2023-05-04T00:56:16.667Z,2097.00
2023-05-04T00:57:16.647Z,2120.00
2023-05-04T00:58:16.676Z,2171.00
2023-05-04T00:59:16.736Z,2201.00
2023-05-04T01:00:16.761Z,2158.00
2023-05-04T01:01:16.860Z,2130.00
2023-05-04T01:02:16.836Z,2102.00
2023-05-04T01:03:16.926Z,2143.00
2023-05-04T01:04:16.904Z,2219.00
2023-05-04T01:05:16.903Z,2248.00
2023-05-04T01:06:16.933Z,2210.00
2023-05-04T01:07:16.944Z,2180.00
2023-05-04T01:08:16.962Z,2143.00
2023-05-04T01:09:16.969Z,2175.00
2023-05-04T01:10:16.959Z,2180.00
2023-05-04T01:11:16.975Z,2204.00
2023-05-04T01:12:16.958Z,2219.00
2023-05-04T01:13:17.000Z,2260.00
2023-05-04T01:14:16.975Z,2258.00
2023-05-04T01:15:17.051Z,2206.00
2023-05-04T01:16:17.050Z,2222.00
2023-05-04T01:17:17.060Z,2197.00
2023-05-04T01:18:17.136Z,2188.00
2023-05-04T01:19:17.084Z,2146.00
2023-05-04T01:20:17.098Z,2139.00
2023-05-04T01:21:17.124Z,2178.00
2023-05-04T01:22:17.155Z,2270.00
2023-05-04T01:23:17.194Z,2286.00
2023-05-04T01:24:17.184Z,2319.00
2023-05-04T01:25:17.189Z,2276.00
2023-05-04T01:26:17.218Z,2270.00
2023-05-04T01:27:17.200Z,2321.00
2023-05-04T01:28:17.205Z,2398.00
2023-05-04T01:29:17.203Z,2429.00
2023-05-04T01:30:17.220Z,2456.00
2023-05-04T01:31:17.310Z,2461.00
2023-05-04T01:32:17.230Z,2495.00
2023-05-04T01:33:17.283Z,2473.00
2023-05-04T01:34:17.292Z,2450.00
2023-05-04T01:35:17.298Z,2485.00
2023-05-04T01:36:17.334Z,2548.00
2023-05-04T01:37:17.361Z,2519.00
2023-05-04T01:38:17.338Z,2480.00
2023-05-04T01:39:17.339Z,2463.00
2023-05-04T01:40:17.366Z,2439.00
2023-05-04T01:41:17.349Z,2410.00
2023-05-04T01:42:17.370Z,2426.00
2023-05-04T01:43:17.383Z,2400.00
2023-05-04T01:44:17.392Z,2385.00
2023-05-04T01:45:17.409Z,2368.00
2023-05-04T01:46:17.512Z,2303.00
2023-05-04T01:47:17.450Z,2306.00
2023-05-04T01:48:17.484Z,2300.00
2023-05-04T01:49:17.491Z,2284.00
2023-05-04T01:50:17.505Z,2343.00
2023-05-04T01:51:17.517Z,2384.00
2023-05-04T01:52:17.524Z,2361.00
2023-05-04T01:53:17.543Z,2342.00
2023-05-04T01:54:17.573Z,2312.00
2023-05-04T01:55:17.597Z,2263.00
2023-05-04T01:56:17.633Z,2237.00
2023-05-04T01:57:17.657Z,2268.00
2023-05-04T01:58:17.635Z,2232.00
2023-05-04T01:59:17.659Z,2231.00
2023-05-04T02:00:17.685Z,2251.00
2023-05-04T02:01:17.685Z,2284.00
2023-05-04T02:02:17.719Z,2323.00
2023-05-04T02:03:17.765Z,2393.00
2023-05-04T02:04:17.684Z,2394.00
2023-05-04T02:05:17.687Z,2416.00
2023-05-04T02:06:17.708Z,2404.00
2023-05-04T02:07:17.705Z,2382.00
2023-05-04T02:08:17.728Z,2371.00
2023-05-04T02:09:17.754Z,2397.00
2023-05-04T02:10:17.777Z,2380.00
2023-05-04T02:11:17.796Z,2388.00
2023-05-04T02:12:17.840Z,2374.00
2023-05-04T02:13:18.006Z,2335.00
2023-05-04T02:14:17.911Z,2272.00
2023-05-04T02:15:17.955Z,2255.00
2023-05-04T02:16:18.075Z,2273.00
2023-05-04T02:17:18.025Z,2248.00
2023-05-04T02:18:18.085Z,2216.00
2023-05-04T02:19:18.112Z,2254.00
2023-05-04T02:20:18.138Z,2220.00
2023-05-04T02:21:18.177Z,2243.00
2023-05-04T02:22:18.222Z,2235.00
2023-05-04T02:23:18.243Z,2309.00
2023-05-04T02:24:18.298Z,2302.00
2023-05-04T02:25:18.363Z,2342.00
2023-05-04T02:26:18.369Z,2317.00
2023-05-04T02:27:18.429Z,2290.00
2023-05-04T02:28:18.407Z,2218.00
2023-05-04T02:29:18.434Z,2182.00
2023-05-04T02:30:18.469Z,2180.00
2023-05-04T02:31:18.541Z,2201.00
2023-05-04T02:32:18.538Z,2198.00
2023-05-04T02:33:18.593Z,2208.00
2023-05-04T02:34:18.601Z,2175.00
2023-05-04T02:35:18.602Z,2144.00
2023-05-04T02:36:18.642Z,2142.00
2023-05-04T02:37:18.650Z,2132.00
2023-05-04T02:38:18.673Z,2116.00
2023-05-04T02:39:18.678Z,2170.00
2023-05-04T02:40:18.675Z,2204.00
2023-05-04T02:41:18.731Z,2167.00
2023-05-04T02:42:18.719Z,2154.00
2023-05-04T02:43:18.751Z,2187.00
2023-05-04T02:44:18.750Z,2224.00
2023-05-04T02:45:18.781Z,2228.00
2023-05-04T02:46:18.888Z,2236.00
2023-05-04T02:47:18.839Z,2260.00
2023-05-04T02:48:18.848Z,2193.00
2023-05-04T02:49:18.858Z,2183.00
2023-05-04T02:50:18.879Z,2180.00
2023-05-04T02:51:18.910Z,2214.00
2023-05-04T02:52:18.921Z,2226.00
2023-05-04T02:53:18.940Z,2223.00
2023-05-04T02:54:18.963Z,2225.00
2023-05-04T02:55:18.977Z,2206.00
2023-05-04T02:56:19.031Z,2220.00
2023-05-04T02:57:19.068Z,2234.00
2023-05-04T02:58:19.070Z,2204.00
2023-05-04T02:59:19.123Z,2206.00
2023-05-04T03:00:19.138Z,2214.00
2023-05-04T03:01:19.204Z,2236.00
2023-05-04T03:02:19.222Z,2200.00
2023-05-04T03:03:19.258Z,2252.00
2023-05-04T03:04:19.297Z,2314.00
2023-05-04T03:05:19.332Z,2329.00
2023-05-04T03:06:19.345Z,2289.00
2023-05-04T03:07:19.361Z,2240.00
2023-05-04T03:08:19.397Z,2239.00
2023-05-04T03:09:19.422Z,2267.00
2023-05-04T03:10:19.448Z,2252.00
2023-05-04T03:11:19.451Z,2235.00
2023-05-04T03:12:19.488Z,2204.00
2023-05-04T03:13:19.493Z,2205.00
2023-05-04T03:14:19.464Z,2258.00
2023-05-04T03:15:19.490Z,2288.00
2023-05-04T03:16:19.536Z,2323.00
2023-05-04T03:17:19.525Z,2349.00
2023-05-04T03:18:19.546Z,2364.00
2023-05-04T03:19:19.557Z,2341.00
2023-05-04T03:20:19.569Z,2324.00
2023-05-04T03:21:19.576Z,2300.00
2023-05-04T03:22:19.596Z,2340.00
2023-05-04T03:23:19.579Z,2368.00
2023-05-04T03:24:19.580Z,2377.00
2023-05-04T03:25:19.598Z,2355.00
2023-05-04T03:26:19.605Z,2353.00
2023-05-04T03:27:19.620Z,2320.00
2023-05-04T03:28:19.642Z,2259.00
2023-05-04T03:29:19.629Z,2257.00
2023-05-04T03:30:19.640Z,2230.00
2023-05-04T03:31:19.702Z,2266.00
2023-05-04T03:32:19.656Z,2246.00
2023-05-04T03:33:19.672Z,2197.00
2023-05-04T03:34:19.690Z,2148.00
2023-05-04T03:35:24.770Z,2146.00
2023-05-04T03:36:20.685Z,2125.00
2023-05-04T03:37:19.670Z,2144.00
2023-05-04T03:38:19.668Z,2156.00
2023-05-04T03:39:19.682Z,2165.00
2023-05-04T03:40:19.665Z,2184.00
2023-05-04T03:41:19.656Z,2198.00
2023-05-04T03:42:19.656Z,2165.00
2023-05-04T03:43:19.627Z,2160.00
2023-05-04T03:44:19.619Z,2185.00
2023-05-04T03:45:19.608Z,2235.00
2023-05-04T03:46:19.675Z,2263.00
2023-05-04T03:47:19.620Z,2253.00
2023-05-04T03:48:19.625Z,2195.00
2023-05-04T03:49:19.641Z,2158.00
2023-05-04T03:50:19.638Z,2228.00
2023-05-04T03:51:19.643Z,2264.00
2023-05-04T03:52:19.672Z,2268.00
2023-05-04T03:53:19.702Z,2268.00
2023-05-04T03:54:19.680Z,2297.00
2023-05-04T03:55:19.673Z,2294.00
2023-05-04T03:56:19.697Z,2283.00
2023-05-04T03:57:19.731Z,2272.00
2023-05-04T03:58:19.709Z,2261.00
2023-05-04T03:59:19.729Z,2318.00
2023-05-04T04:00:19.741Z,2325.00
2023-05-04T04:01:19.744Z,2341.00
2023-05-04T04:02:19.841Z,2316.00
2023-05-04T04:03:19.928Z,2281.00
2023-05-04T04:04:19.891Z,2266.00
2023-05-04T04:05:19.849Z,2306.00
2023-05-04T04:06:19.891Z,2344.00
2023-05-04T04:07:19.924Z,2362.00
2023-05-04T04:08:19.955Z,2392.00
2023-05-04T04:09:19.990Z,2416.00
2023-05-04T04:10:20.003Z,2392.00
2023-05-04T04:11:20.053Z,2373.00
2023-05-04T04:12:20.078Z,2383.00
2023-05-04T04:13:20.261Z,2375.00
2023-05-04T04:14:20.119Z,2346.00
2023-05-04T04:15:20.125Z,2370.00
2023-05-04T04:16:20.211Z,2380.00
2023-05-04T04:17:20.237Z,2364.00
2023-05-04T04:18:20.195Z,2383.00
2023-05-04T04:19:20.184Z,2362.00
2023-05-04T04:20:20.197Z,2393.00
2023-05-04T04:21:20.228Z,2386.00
2023-05-04T04:22:20.242Z,2431.00
2023-05-04T04:23:20.283Z,2390.00
2023-05-04T04:24:20.287Z,2347.00
2023-05-04T04:25:20.338Z,2320.00
2023-05-04T04:26:20.357Z,2289.00
2023-05-04T04:27:20.356Z,2248.00
2023-05-04T04:28:20.396Z,2262.00
2023-05-04T04:29:20.431Z,2295.00
2023-05-04T04:30:20.398Z,2352.00
2023-05-04T04:31:20.479Z,2340.00
2023-05-04T04:32:20.434Z,2340.00
2023-05-04T04:33:20.452Z,2319.00
2023-05-04T04:34:20.461Z,2321.00
2023-05-04T04:35:20.496Z,2358.00
2023-05-04T04:36:20.503Z,2416.00
2023-05-04T04:37:20.534Z,2486.00
2023-05-04T04:38:20.582Z,2520.00
2023-05-04T04:39:20.618Z,2563.00
2023-05-04T04:40:20.660Z,2567.00
2023-05-04T04:41:20.685Z,2588.00
2023-05-04T04:42:20.687Z,2612.00
2023-05-04T04:43:20.727Z,2596.00
2023-05-04T04:44:20.785Z,2597.00
2023-05-04T04:45:20.796Z,2624.00
2023-05-04T04:46:20.824Z,2650.00
2023-05-04T04:47:20.843Z,2663.00
2023-05-04T04:48:20.857Z,2676.00
2023-05-04T04:49:20.851Z,2675.00
2023-05-04T04:50:20.891Z,2639.00
2023-05-04T04:51:20.922Z,2635.00
2023-05-04T04:52:20.918Z,2671.00
2023-05-04T04:53:20.970Z,2721.00
2023-05-04T04:54:20.995Z,2729.00
2023-05-04T04:55:20.989Z,2708.00
2023-05-04T04:56:21.005Z,2660.00
2023-05-04T04:57:21.051Z,2650.00
2023-05-04T04:58:21.057Z,2727.00
2023-05-04T04:59:21.105Z,2760.00
2023-05-04T05:00:21.153Z,2777.00
2023-05-04T05:01:21.258Z,2781.00
2023-05-04T05:02:21.226Z,2784.00
2023-05-04T05:03:21.285Z,2821.00
2023-05-04T05:04:21.298Z,2851.00
2023-05-04T05:05:21.316Z,2865.00
2023-05-04T05:06:21.344Z,2878.00
2023-05-04T05:07:21.339Z,2905.00
2023-05-04T05:08:21.378Z,2879.00
2023-05-04T05:09:21.408Z,2910.00
2023-05-04T05:10:21.417Z,2911.00
2023-05-04T05:11:21.442Z,2921.00
2023-05-04T05:12:21.483Z,2919.00
2023-05-04T05:13:21.586Z,2944.00
2023-05-04T05:14:21.479Z,2942.00
2023-05-04T05:15:21.526Z,2945.00
2023-05-04T05:16:21.547Z,2961.00
2023-05-04T05:17:21.551Z,2964.00
2023-05-04T05:18:21.538Z,2971.00
2023-05-04T05:19:21.659Z,2971.00
2023-05-04T05:20:21.611Z,2977.00
2023-05-04T05:21:21.569Z,2990.00
2023-05-04T05:22:21.573Z,2976.00
2023-05-04T05:23:21.568Z,2987.00
2023-05-04T05:24:21.628Z,3000.00
2023-05-04T05:25:21.623Z,2987.00
2023-05-04T05:26:21.618Z,3011.00
2023-05-04T05:27:21.707Z,3015.00
2023-05-04T05:28:21.630Z,2985.00
2023-05-04T05:29:21.648Z,3016.00
2023-05-04T05:30:21.649Z,3070.00
2023-05-04T05:31:21.722Z,3164.00
2023-05-04T05:32:21.685Z,3137.00
2023-05-04T05:33:21.653Z,3081.00
2023-05-04T05:34:21.649Z,2976.00
2023-05-04T05:35:21.657Z,2952.00
2023-05-04T05:36:21.658Z,2937.00
2023-05-04T05:37:21.735Z,2915.00
2023-05-04T05:38:21.685Z,2886.00
2023-05-04T05:39:21.730Z,2843.00
2023-05-04T05:40:21.792Z,2801.00
2023-05-04T05:41:21.857Z,2812.00
2023-05-04T05:42:22.264Z,2942.00
2023-05-04T05:43:21.975Z,3062.00
2023-05-04T05:44:22.017Z,3173.00
2023-05-04T05:45:22.068Z,3262.00
2023-05-04T05:46:22.155Z,3329.00
2023-05-04T05:47:22.153Z,3394.00
2023-05-04T05:48:22.214Z,3469.00
2023-05-04T05:49:22.313Z,3471.00
2023-05-04T05:50:22.319Z,3485.00
2023-05-04T05:51:22.387Z,3515.00
2023-05-04T05:52:22.449Z,3531.00
2023-05-04T05:53:22.490Z,3560.00
2023-05-04T05:54:22.560Z,3573.00
2023-05-04T05:55:22.590Z,3560.00
2023-05-04T05:56:22.653Z,3588.00
2023-05-04T05:57:22.688Z,3603.00
2023-05-04T05:58:22.734Z,3612.00
2023-05-04T05:59:22.784Z,3625.00
2023-05-04T06:00:22.798Z,3633.00
2023-05-04T06:01:22.846Z,3636.00
2023-05-04T06:02:22.999Z,3636.00
2023-05-04T06:03:23.131Z,3682.00
2023-05-04T06:04:22.959Z,3713.00
2023-05-04T06:05:22.962Z,3741.00
2023-05-04T06:06:23.001Z,3773.00
2023-05-04T06:07:23.042Z,3773.00
2023-05-04T06:08:23.050Z,3787.00
2023-05-04T06:09:23.078Z,3784.00
2023-05-04T06:10:23.094Z,3824.00
2023-05-04T06:11:23.118Z,3817.00
2023-05-04T06:12:23.137Z,3801.00
2023-05-04T06:13:23.171Z,3788.00
2023-05-04T06:14:23.171Z,3795.00
2023-05-04T06:15:23.200Z,3795.00
2023-05-04T06:16:23.233Z,3786.00
2023-05-04T06:17:23.297Z,3829.00
2023-05-04T06:18:23.243Z,3821.00
2023-05-04T06:19:23.285Z,3834.00
2023-05-04T06:20:23.284Z,3838.00
2023-05-04T06:21:23.321Z,3832.00
2023-05-04T06:22:23.360Z,3754.00
2023-05-04T06:23:23.354Z,3756.00
2023-05-04T06:24:23.365Z,3785.00
2023-05-04T06:25:23.386Z,3803.00
2023-05-04T06:26:23.374Z,3825.00
2023-05-04T06:27:24.219Z,3832.00
2023-05-04T06:28:23.746Z,3836.00
2023-05-04T06:29:23.402Z,3686.00
2023-05-04T06:30:23.446Z,3493.00
2023-05-04T06:31:23.531Z,3409.00
2023-05-04T06:32:23.871Z,3098.00
2023-05-04T06:33:23.557Z,2972.00
2023-05-04T06:34:23.565Z,3069.00
2023-05-04T06:35:23.595Z,2947.00
2023-05-04T06:36:23.612Z,2761.00
2023-05-04T06:37:23.737Z,2663.00
2023-05-04T06:38:23.658Z,2696.00
2023-05-04T06:39:24.634Z,2825.00
2023-05-04T06:40:23.725Z,2968.00
2023-05-04T06:41:23.733Z,3029.00
2023-05-04T06:42:23.749Z,2933.00
2023-05-04T06:43:23.783Z,3018.00
2023-05-04T06:44:23.792Z,2943.00
2023-05-04T06:45:23.795Z,2920.00
2023-05-04T06:46:23.840Z,2888.00
2023-05-04T06:47:23.852Z,2903.00
2023-05-04T06:48:23.798Z,2996.00
2023-05-04T06:49:23.802Z,3079.00
2023-05-04T06:50:23.931Z,3076.00
2023-05-04T06:51:23.865Z,3042.00
2023-05-04T06:52:23.943Z,3085.00
2023-05-04T06:53:23.995Z,3074.00
2023-05-04T06:54:24.073Z,3076.00
2023-05-04T06:55:24.130Z,3138.00
2023-05-04T06:56:24.165Z,3175.00
2023-05-04T06:57:24.236Z,3183.00
2023-05-04T06:58:24.290Z,3042.00
2023-05-04T06:59:24.359Z,2964.00
2023-05-04T07:00:24.393Z,2990.00
2023-05-04T07:01:24.508Z,3012.00
2023-05-04T07:02:24.549Z,3069.00
2023-05-04T07:03:24.679Z,3089.00
2023-05-04T07:04:24.613Z,3104.00
2023-05-04T07:05:24.673Z,3196.00
2023-05-04T07:06:24.723Z,3256.00
2023-05-04T07:07:24.758Z,3325.00
2023-05-04T07:08:24.811Z,3388.00
2023-05-04T07:09:24.854Z,3403.00
2023-05-04T07:10:24.932Z,3278.00
2023-05-04T07:11:24.933Z,3276.00
2023-05-04T07:12:24.950Z,3352.00
2023-05-04T07:13:25.250Z,3419.00
2023-05-04T07:14:25.002Z,3443.00
2023-05-04T07:15:25.114Z,3371.00
2023-05-04T07:16:25.146Z,3405.00
2023-05-04T07:17:25.282Z,3458.00
2023-05-04T07:18:25.100Z,3419.00
2023-05-04T07:19:25.140Z,3399.00
2023-05-04T07:20:26.243Z,3443.00
2023-05-04T07:21:28.425Z,3493.00
2023-05-04T07:22:25.164Z,3505.00
2023-05-04T07:23:25.163Z,3481.00
2023-05-04T07:24:25.163Z,3499.00
2023-05-04T07:25:25.159Z,3533.00
2023-05-04T07:26:25.147Z,3491.00
2023-05-04T07:27:25.243Z,3262.00
2023-05-04T07:28:25.150Z,2895.00
2023-05-04T07:29:25.124Z,2507.00
2023-05-04T07:30:25.178Z,2202.00
2023-05-04T07:31:25.204Z,1936.00
2023-05-04T07:32:25.412Z,1845.00
2023-05-04T07:33:25.210Z,1879.00
2023-05-04T07:34:33.894Z,1941.00
2023-05-04T07:35:26.081Z,1942.00
2023-05-04T07:36:25.116Z,1958.00
2023-05-04T07:37:25.251Z,2009.00
2023-05-04T07:38:25.159Z,2112.00
2023-05-04T07:39:25.101Z,2305.00
2023-05-04T07:40:25.086Z,2259.00
2023-05-04T07:41:25.035Z,2377.00
2023-05-04T07:42:25.244Z,2476.00
2023-05-04T07:43:25.039Z,2100.00
2023-05-04T07:44:25.019Z,1910.00
2023-05-04T07:45:25.036Z,1865.00
2023-05-04T07:46:25.063Z,1827.00
2023-05-04T07:47:25.248Z,1923.00
2023-05-04T07:48:26.523Z,2020.00
2023-05-04T07:49:25.149Z,2097.00
2023-05-04T07:50:25.234Z,2151.00
2023-05-04T07:51:25.205Z,2201.00
2023-05-04T07:52:25.228Z,2339.00
2023-05-04T07:53:25.747Z,2394.00
2023-05-04T07:54:25.285Z,2394.00
2023-05-04T07:55:25.290Z,2609.00
2023-05-04T07:56:25.324Z,2514.00
2023-05-04T07:57:25.348Z,2664.00
2023-05-04T07:58:25.762Z,2669.00
2023-05-04T07:59:25.460Z,2807.00
2023-05-04T08:00:25.391Z,2856.00
2023-05-04T08:01:25.407Z,2775.00
2023-05-04T08:02:25.490Z,2665.00
2023-05-04T08:03:25.488Z,2624.00
2023-05-04T08:04:25.425Z,2639.00
2023-05-04T08:05:25.438Z,2669.00
2023-05-04T08:06:25.428Z,2740.00
2023-05-04T08:07:25.453Z,2781.00
2023-05-04T08:08:25.444Z,2849.00
2023-05-04T08:09:25.451Z,2861.00
2023-05-04T08:10:25.464Z,2526.00
2023-05-04T08:11:25.455Z,2399.00
2023-05-04T08:12:25.470Z,2334.00
2023-05-04T08:13:25.462Z,2526.00
2023-05-04T08:14:25.456Z,2586.00
2023-05-04T08:15:25.467Z,2596.00
2023-05-04T08:16:25.452Z,2376.00
2023-05-04T08:17:25.487Z,2429.00
2023-05-04T08:18:25.462Z,2291.00
2023-05-04T08:19:25.475Z,2106.00
2023-05-04T08:20:25.570Z,2082.00
2023-05-04T08:21:25.524Z,1962.00
2023-05-04T08:22:25.517Z,1432.00
2023-05-04T08:23:25.772Z,1204.00
2023-05-04T08:24:25.564Z,860.00
2023-05-04T08:25:25.605Z,857.00
2023-05-04T08:26:25.641Z,1007.00
2023-05-04T08:27:25.666Z,1143.00
2023-05-04T08:28:25.688Z,1219.00
2023-05-04T08:29:25.728Z,1160.00
2023-05-04T08:30:25.769Z,1070.00
2023-05-04T08:31:25.866Z,1165.00
2023-05-04T08:32:25.850Z,1227.00
2023-05-04T08:33:25.865Z,1153.00
2023-05-04T08:34:25.881Z,1173.00
2023-05-04T08:35:25.940Z,1158.00
2023-05-04T08:36:25.935Z,717.00
2023-05-04T08:37:25.973Z,616.00
2023-05-04T08:38:26.026Z,582.00
2023-05-04T08:39:26.066Z,546.00
2023-05-04T08:40:26.108Z,581.00
2023-05-04T08:41:26.146Z,615.00
2023-05-04T08:42:26.194Z,758.00
2023-05-04T08:43:26.294Z,954.00
2023-05-04T08:44:26.270Z,1217.00
2023-05-04T08:45:26.292Z,1303.00
2023-05-04T08:46:26.300Z,1524.00
2023-05-04T08:47:26.353Z,1679.00
2023-05-04T08:48:26.360Z,1880.00
2023-05-04T08:49:26.353Z,2032.00
2023-05-04T08:50:26.356Z,2147.00
2023-05-04T08:51:26.375Z,2225.00
2023-05-04T08:52:26.403Z,2184.00
2023-05-04T08:53:26.385Z,2115.00
2023-05-04T08:54:26.360Z,2195.00
2023-05-04T08:55:26.386Z,2189.00
2023-05-04T08:56:26.374Z,2220.00
2023-05-04T08:57:26.350Z,1961.00
2023-05-04T08:58:26.358Z,1053.00
2023-05-04T08:59:26.359Z,674.00
2023-05-04T09:00:26.453Z,574.00
2023-05-04T09:01:26.487Z,478.00
2023-05-04T09:02:26.492Z,400.00
2023-05-04T09:03:26.868Z,400.00
2023-05-04T09:04:27.814Z,400.00
2023-05-04T09:05:26.525Z,400.00
2023-05-04T09:06:26.503Z,400.00
2023-05-04T09:07:26.510Z,400.00
2023-05-04T09:08:26.820Z,400.00
2023-05-04T09:09:26.516Z,400.00
2023-05-04T09:10:28.806Z,400.00
2023-05-04T09:11:26.506Z,400.00
2023-05-04T09:12:26.468Z,400.00
2023-05-04T09:13:26.487Z,400.00
2023-05-04T09:14:26.467Z,405.00
2023-05-04T09:15:26.471Z,411.00
2023-05-04T09:16:26.474Z,502.00
2023-05-04T09:17:26.492Z,477.00
2023-05-04T09:18:26.506Z,509.00
2023-05-04T09:19:26.423Z,546.00
2023-05-04T09:20:26.431Z,552.00
2023-05-04T09:21:26.409Z,631.00
2023-05-04T09:22:27.609Z,718.00
2023-05-04T09:23:26.828Z,727.00
2023-05-04T09:24:26.402Z,786.00
2023-05-04T09:25:26.389Z,986.00
2023-05-04T09:26:26.399Z,1213.00
2023-05-04T09:27:26.369Z,1900.00
2023-05-04T09:28:28.809Z,1889.00
2023-05-04T09:29:26.451Z,1619.00
2023-05-04T09:30:26.459Z,1540.00
2023-05-04T09:31:26.443Z,1203.00
2023-05-04T09:32:26.463Z,1209.00
2023-05-04T09:33:26.790Z,1077.00
2023-05-04T09:34:26.451Z,937.00
2023-05-04T09:35:33.137Z,1015.00
2023-05-04T09:36:27.450Z,1029.00
2023-05-04T09:37:26.443Z,1090.00
2023-05-04T09:38:26.433Z,1300.00
2023-05-04T09:39:26.436Z,1417.00
2023-05-04T09:40:26.449Z,1470.00
2023-05-04T09:41:26.401Z,1572.00
2023-05-04T09:42:26.409Z,1762.00
2023-05-04T09:43:26.396Z,1994.00
2023-05-04T09:44:28.865Z,2140.00
2023-05-04T09:45:26.383Z,2052.00
2023-05-04T09:46:26.413Z,1884.00
2023-05-04T09:47:26.386Z,1865.00
2023-05-04T09:48:26.371Z,1582.00
2023-05-04T09:49:26.362Z,1504.00
2023-05-04T09:50:26.354Z,1485.00
2023-05-04T09:51:26.370Z,1767.00
2023-05-04T09:52:26.327Z,1700.00
2023-05-04T09:53:26.839Z,1699.00
2023-05-04T09:54:26.346Z,2016.00
2023-05-04T09:55:26.306Z,1750.00
2023-05-04T09:56:26.300Z,1378.00
2023-05-04T09:57:26.294Z,866.00
2023-05-04T09:58:26.322Z,879.00
2023-05-04T09:59:26.297Z,1131.00
2023-05-04T10:00:26.289Z,1107.00
2023-05-04T10:01:26.310Z,1207.00
2023-05-04T10:02:26.307Z,1167.00
2023-05-04T10:03:26.291Z,1233.00
2023-05-04T10:04:26.238Z,1464.00
2023-05-04T10:05:26.272Z,1684.00
2023-05-04T10:06:26.233Z,1641.00
2023-05-04T10:07:26.253Z,1386.00
2023-05-04T10:08:26.258Z,1378.00
2023-05-04T10:09:26.224Z,1593.00
2023-05-04T10:10:26.215Z,1471.00
2023-05-04T10:11:26.209Z,1660.00
2023-05-04T10:12:26.211Z,1229.00
2023-05-04T10:13:26.236Z,1050.00
2023-05-04T10:14:26.178Z,1362.00
2023-05-04T10:15:26.181Z,1430.00
2023-05-04T10:16:26.235Z,1346.00
2023-05-04T10:17:26.221Z,1286.00
2023-05-04T10:18:26.174Z,1151.00
2023-05-04T10:19:26.159Z,1108.00
2023-05-04T10:20:26.150Z,1192.00
2023-05-04T10:21:26.158Z,714.00
2023-05-04T10:22:26.149Z,586.00
2023-05-04T10:23:26.135Z,504.00
2023-05-04T10:24:26.299Z,454.00
2023-05-04T10:25:26.147Z,443.00
2023-05-04T10:26:26.127Z,473.00
2023-05-04T10:27:26.100Z,542.00
2023-05-04T10:28:26.097Z,536.00
2023-05-04T10:29:26.080Z,532.00
2023-05-04T10:30:26.079Z,634.00
2023-05-04T10:31:26.106Z,742.00
2023-05-04T10:32:26.104Z,1196.00
2023-05-04T10:33:26.054Z,833.00
2023-05-04T10:34:26.310Z,820.00
2023-05-04T10:35:26.056Z,956.00
2023-05-04T10:36:26.053Z,940.00
2023-05-04T10:37:26.031Z,922.00
2023-05-04T10:38:26.075Z,938.00
2023-05-04T10:39:26.176Z,866.00
2023-05-04T10:40:26.150Z,836.00
2023-05-04T10:41:26.168Z,888.00
2023-05-04T10:42:26.209Z,998.00
2023-05-04T10:43:26.288Z,1155.00
2023-05-04T10:44:26.824Z,1369.00
2023-05-04T10:45:26.413Z,1594.00
2023-05-04T10:46:26.462Z,1542.00
2023-05-04T10:47:26.537Z,1325.00
2023-05-04T10:48:26.558Z,1060.00
2023-05-04T10:49:26.853Z,997.00
2023-05-04T10:50:26.707Z,1064.00
2023-05-04T10:51:35.743Z,1174.00
2023-05-04T10:52:27.775Z,796.00
2023-05-04T10:53:26.742Z,613.00
2023-05-04T10:54:26.823Z,571.00
2023-05-04T10:55:26.747Z,570.00
2023-05-04T10:56:26.745Z,466.00
2023-05-04T10:57:26.722Z,535.00
2023-05-04T10:58:26.706Z,601.00
2023-05-04T10:59:26.833Z,804.00
2023-05-04T11:00:26.704Z,793.00
2023-05-04T11:01:26.815Z,653.00
2023-05-04T11:02:26.918Z,917.00
2023-05-04T11:03:26.988Z,776.00
2023-05-04T11:04:27.321Z,810.00
2023-05-04T11:05:26.960Z,650.00
2023-05-04T11:06:27.011Z,592.00
2023-05-04T11:07:27.062Z,857.00
2023-05-04T11:08:27.145Z,725.00
2023-05-04T11:09:27.205Z,1081.00
2023-05-04T11:10:27.271Z,1010.00
2023-05-04T11:11:27.374Z,677.00
2023-05-04T11:12:27.382Z,580.00
2023-05-04T11:13:27.438Z,778.00
2023-05-04T11:14:27.836Z,408.00
2023-05-04T11:15:27.482Z,400.00
2023-05-04T11:16:27.566Z,400.00
2023-05-04T11:17:28.811Z,400.00
2023-05-04T11:18:27.868Z,400.00
2023-05-04T11:19:27.493Z,400.00
2023-05-04T11:20:27.498Z,625.00
2023-05-04T11:21:27.497Z,641.00
2023-05-04T11:22:27.507Z,1385.00
2023-05-04T11:23:27.504Z,1581.00
2023-05-04T11:24:27.485Z,1781.00
2023-05-04T11:25:27.501Z,1965.00
2023-05-04T11:26:27.507Z,2117.00
2023-05-04T11:27:27.496Z,2158.00
2023-05-04T11:28:27.469Z,2288.00
2023-05-04T11:29:27.471Z,2576.00
2023-05-04T11:30:27.475Z,2486.00
2023-05-04T11:31:27.511Z,2669.00
2023-05-04T11:32:27.500Z,2716.00
2023-05-04T11:33:27.477Z,2975.00
2023-05-04T11:34:27.459Z,3160.00
2023-05-04T11:35:27.492Z,2941.00
2023-05-04T11:36:27.462Z,3337.00
2023-05-04T11:37:27.490Z,3358.00
2023-05-04T11:38:27.500Z,3384.00
2023-05-04T11:39:27.525Z,3569.00
2023-05-04T11:40:27.572Z,3691.00
2023-05-04T11:41:27.574Z,3749.00
2023-05-04T11:42:27.612Z,3905.00
2023-05-04T11:43:27.669Z,4045.00
2023-05-04T11:44:27.680Z,4196.00
2023-05-04T11:45:27.733Z,4210.00
2023-05-04T11:46:27.783Z,4270.00
2023-05-04T11:47:27.890Z,4378.00
2023-05-04T11:48:27.899Z,4398.00
2023-05-04T11:49:27.900Z,4461.00
2023-05-04T11:50:27.977Z,4458.00
2023-05-04T11:51:27.997Z,4542.00
2023-05-04T11:52:28.066Z,4561.00
2023-05-04T11:53:28.169Z,4601.00
2023-05-04T11:54:28.159Z,4626.00
2023-05-04T11:55:28.203Z,4568.00
2023-05-04T11:56:28.243Z,4633.00
2023-05-04T11:57:28.300Z,4634.00
2023-05-04T11:58:28.321Z,4675.00
2023-05-04T11:59:28.394Z,4741.00
2023-05-04T12:00:28.380Z,4858.00
2023-05-04T12:01:28.432Z,4790.00
2023-05-04T12:02:28.526Z,4832.00
2023-05-04T12:03:39.220Z,4886.00
2023-05-04T12:04:29.518Z,4861.00
2023-05-04T12:05:28.562Z,4875.00
2023-05-04T12:06:28.519Z,4917.00
2023-05-04T12:07:28.509Z,4964.00
2023-05-04T12:08:28.495Z,4987.00